Florida State University, Florida
Current Conditions -  °F | °C
As of 5:53 PM on Sunday 21 Dec 2014 (Local Time) from KTLH Reporting Station
Moderate Rain Moderate Rain  
Wind Chill: 58°   Ceiling: 500
Heat Index: 58°   Visibility: 2mi
Dew Point: 54°   Wind: 6mph
Humidity: 87%   Direction: 70°ENE
Pressure: 30.03"   Gusts: NA
Location:  30.4396°N, 84.2807°W
Report Text: KTLH 212253Z 07005KT 2SM RA OVC005 14/12 A3003 RMK AO2 SFC VIS 7 SLP168 P0004 T01440122 $
Loading
Personal Weather Stations






























Interactive Weather Map New forecast layout! Learn more

10-Day Weather Forecast

Advertisements
Track Severe Weather on mobile